createdAt,value
2023-03-29T00:01:43.573Z,-0.72
2023-03-29T00:04:47.272Z,-0.63
2023-03-29T00:07:54.522Z,-0.71
2023-03-29T00:10:59.556Z,-0.74
2023-03-29T00:14:02.824Z,-0.72
2023-03-29T00:17:06.700Z,-0.64
2023-03-29T00:20:10.491Z,-0.57
2023-03-29T00:23:13.542Z,-0.62
2023-03-29T00:26:16.605Z,-0.68
2023-03-29T00:29:19.870Z,-0.69
2023-03-29T00:32:22.802Z,-0.60
2023-03-29T00:35:25.959Z,-0.62
2023-03-29T00:38:28.869Z,-0.63
2023-03-29T00:41:32.011Z,-0.59
2023-03-29T00:44:59.742Z,-0.49
2023-03-29T00:48:07.283Z,-0.82
2023-03-29T00:51:14.534Z,-1.08
2023-03-29T00:54:18.917Z,-1.31
2023-03-29T00:57:26.483Z,-1.58
2023-03-29T01:00:37.582Z,-1.54
2023-03-29T01:03:46.716Z,-1.70
2023-03-29T01:07:01.183Z,-1.87
2023-03-29T01:10:19.707Z,-1.86
2023-03-29T01:13:39.516Z,-1.90
2023-03-29T01:16:42.779Z,-1.82
2023-03-29T01:19:51.093Z,-1.75
2023-03-29T01:23:03.082Z,-1.72
2023-03-29T01:26:40.408Z,-1.99
2023-03-29T01:29:50.278Z,-2.01
2023-03-29T01:33:14.624Z,-1.86
2023-03-29T01:36:37.865Z,-1.79
2023-03-29T01:39:40.960Z,-2.01
2023-03-29T01:43:19.412Z,-1.96
2023-03-29T01:46:46.045Z,-1.99
2023-03-29T01:50:02.019Z,-2.02
2023-03-29T01:53:25.703Z,-2.35
2023-03-29T01:56:30.196Z,-2.48
2023-03-29T01:59:36.228Z,-2.52
2023-03-29T02:02:43.503Z,-2.30
2023-03-29T02:05:47.051Z,-2.33
2023-03-29T02:08:51.697Z,-2.42
2023-03-29T02:11:59.051Z,-2.43
2023-03-29T02:15:02.318Z,-2.27
2023-03-29T02:18:06.894Z,-2.22
2023-03-29T02:21:21.636Z,-2.16
2023-03-29T02:24:26.416Z,-2.20
2023-03-29T02:27:30.259Z,-2.13
2023-03-29T02:30:57.944Z,-2.10
2023-03-29T02:34:09.031Z,-2.23
2023-03-29T02:37:18.170Z,-2.49
2023-03-29T02:40:24.009Z,-2.35
2023-03-29T02:43:29.256Z,-2.58
2023-03-29T02:46:32.828Z,-2.39
2023-03-29T02:49:35.687Z,-2.49
2023-03-29T02:52:43.506Z,-2.63
2023-03-29T02:55:47.164Z,-2.63
2023-03-29T02:58:50.773Z,-2.48
2023-03-29T03:01:54.042Z,-2.40
2023-03-29T03:04:58.049Z,-2.37
2023-03-29T03:08:01.289Z,-2.36
2023-03-29T03:11:06.154Z,-2.34
2023-03-29T03:14:09.660Z,-2.20
2023-03-29T03:17:12.853Z,-2.15
2023-03-29T03:20:15.776Z,-2.28
2023-03-29T03:23:19.376Z,-2.45
2023-03-29T03:26:25.162Z,-2.56
2023-03-29T03:29:29.162Z,-2.67
2023-03-29T03:32:36.985Z,-2.57
2023-03-29T03:35:42.857Z,-2.33
2023-03-29T03:38:46.346Z,-2.34
2023-03-29T03:41:49.449Z,-2.44
2023-03-29T03:44:52.353Z,-2.58
2023-03-29T03:47:56.907Z,-2.41
2023-03-29T03:51:00.503Z,-2.29
2023-03-29T03:54:05.830Z,-2.26
2023-03-29T03:57:11.847Z,-2.18
2023-03-29T04:00:21.650Z,-2.08
2023-03-29T04:03:25.572Z,-2.37
2023-03-29T04:06:30.819Z,-2.10
2023-03-29T04:09:37.817Z,-2.06
2023-03-29T04:12:42.175Z,-1.90
2023-03-29T04:15:46.303Z,-2.01
2023-03-29T04:18:50.482Z,-2.23
2023-03-29T04:21:53.864Z,-2.12
2023-03-29T04:24:57.570Z,-1.92
2023-03-29T04:28:03.016Z,-1.79
2023-03-29T04:31:12.673Z,-1.94
2023-03-29T04:37:22.374Z,-1.62
2023-03-29T04:40:25.704Z,-1.80
2023-03-29T04:43:30.867Z,-1.96
2023-03-29T04:46:35.033Z,-1.86
2023-03-29T04:49:40.118Z,-1.76
2023-03-29T04:52:45.763Z,-1.72
2023-03-29T04:55:48.888Z,-1.69
2023-03-29T04:58:52.420Z,-1.59
2023-03-29T05:01:57.396Z,-1.57
2023-03-29T05:05:00.800Z,-1.47
2023-03-29T05:08:05.004Z,-1.46
2023-03-29T05:11:11.103Z,-1.39
2023-03-29T05:14:14.021Z,-1.21
2023-03-29T05:17:17.306Z,-1.22
2023-03-29T05:20:20.310Z,-1.21
2023-03-29T05:23:24.038Z,-1.05
2023-03-29T05:26:29.912Z,-0.96
2023-03-29T05:29:33.322Z,-0.95
2023-03-29T05:32:40.759Z,-1.07
2023-03-29T05:35:44.429Z,-1.11
2023-03-29T05:38:47.463Z,-1.24
2023-03-29T05:41:50.889Z,-1.29
2023-03-29T05:44:54.897Z,-1.19
2023-03-29T05:47:58.912Z,-1.02
2023-03-29T05:51:03.775Z,-0.79
2023-03-29T05:54:07.251Z,-0.54
2023-03-29T05:57:10.165Z,-0.40
2023-03-29T06:00:22.658Z,-0.09
2023-03-29T06:03:27.799Z,0.29
2023-03-29T06:06:32.046Z,0.57
2023-03-29T06:09:35.430Z,0.46
2023-03-29T06:12:39.085Z,0.62
2023-03-29T06:15:42.262Z,0.44
2023-03-29T06:18:45.492Z,0.50
2023-03-29T06:21:48.841Z,0.56
2023-03-29T06:24:52.938Z,0.68
2023-03-29T06:27:57.761Z,0.75
2023-03-29T06:31:03.632Z,0.88
2023-03-29T06:34:09.099Z,1.02
2023-03-29T06:37:14.228Z,0.99
2023-03-29T06:40:25.035Z,1.12
2023-03-29T06:43:28.111Z,1.15
2023-03-29T06:46:38.040Z,1.44
2023-03-29T06:49:41.533Z,1.63
2023-03-29T06:52:46.349Z,1.87
2023-03-29T06:55:52.316Z,2.19
2023-03-29T06:58:56.983Z,2.67
2023-03-29T07:02:01.181Z,3.30
2023-03-29T07:05:11.584Z,3.70
2023-03-29T07:08:16.703Z,3.98
2023-03-29T07:11:20.920Z,4.54
2023-03-29T07:14:28.893Z,4.83
2023-03-29T07:17:32.551Z,4.70
2023-03-29T07:20:38.807Z,4.80
2023-03-29T07:23:42.298Z,4.63
2023-03-29T07:27:00.205Z,4.27
2023-03-29T07:30:11.710Z,4.41
2023-03-29T07:33:15.037Z,4.93
2023-03-29T07:36:19.927Z,5.92
2023-03-29T07:39:23.244Z,6.83
2023-03-29T07:42:30.504Z,6.59
2023-03-29T07:45:34.022Z,6.27
2023-03-29T07:48:37.474Z,5.95
2023-03-29T07:51:40.393Z,5.79
2023-03-29T07:54:43.940Z,6.25
2023-03-29T07:57:47.120Z,6.26
2023-03-29T08:00:50.987Z,6.90
2023-03-29T08:03:55.403Z,7.33
2023-03-29T08:06:59.998Z,8.15
2023-03-29T08:10:04.258Z,8.51
2023-03-29T08:13:09.585Z,8.54
2023-03-29T08:16:13.215Z,8.29
2023-03-29T08:19:16.861Z,8.61
2023-03-29T08:22:22.213Z,7.39
2023-03-29T08:25:33.734Z,8.06
2023-03-29T08:28:36.873Z,8.65
2023-03-29T08:31:40.466Z,8.92
2023-03-29T08:34:44.150Z,9.95
2023-03-29T08:37:47.690Z,10.82
2023-03-29T08:40:50.955Z,10.83
2023-03-29T08:44:16.929Z,11.18
2023-03-29T08:47:30.084Z,12.09
2023-03-29T08:50:39.498Z,11.83
2023-03-29T08:53:47.195Z,10.94
2023-03-29T08:56:52.387Z,10.59
2023-03-29T08:59:58.663Z,10.17
2023-03-29T09:03:03.085Z,10.05
2023-03-29T09:06:09.204Z,10.66
2023-03-29T09:09:17.794Z,10.76
2023-03-29T09:12:44.572Z,9.62
2023-03-29T09:16:06.025Z,10.52
2023-03-29T09:19:25.968Z,10.44
2023-03-29T09:22:46.877Z,10.74
2023-03-29T09:25:59.141Z,11.13
2023-03-29T09:29:23.971Z,10.67
2023-03-29T09:32:44.361Z,10.22
2023-03-29T09:35:55.537Z,10.59
2023-03-29T09:38:59.914Z,10.19
2023-03-29T09:42:09.402Z,10.70
2023-03-29T09:45:13.473Z,10.79
2023-03-29T09:48:19.562Z,10.30
2023-03-29T09:51:28.486Z,10.11
2023-03-29T09:54:32.776Z,10.77
2023-03-29T09:57:40.976Z,9.86
2023-03-29T10:00:45.579Z,10.47
2023-03-29T10:03:53.602Z,10.52
2023-03-29T10:07:00.366Z,11.77
2023-03-29T10:10:08.437Z,13.21
2023-03-29T10:13:19.194Z,13.20
2023-03-29T10:16:24.924Z,11.01
2023-03-29T10:19:35.112Z,12.54
2023-03-29T10:22:40.660Z,12.48
2023-03-29T10:25:43.527Z,12.46
2023-03-29T10:28:46.816Z,12.97
2023-03-29T10:31:50.568Z,12.46
2023-03-29T10:34:54.924Z,12.84
2023-03-29T10:37:59.623Z,12.29
2023-03-29T10:41:11.883Z,11.96
2023-03-29T10:44:29.337Z,12.48
2023-03-29T10:47:34.604Z,12.78
2023-03-29T10:50:38.437Z,12.34
2023-03-29T10:53:42.838Z,13.43
2023-03-29T10:56:58.266Z,13.48
2023-03-29T11:00:27.376Z,13.19
2023-03-29T11:03:40.685Z,12.80
2023-03-29T11:06:56.528Z,13.08
2023-03-29T11:10:28.641Z,13.48
2023-03-29T11:14:23.672Z,13.21
2023-03-29T11:17:32.820Z,13.20
2023-03-29T11:20:44.943Z,13.42
2023-03-29T11:24:13.164Z,13.21
2023-03-29T11:27:30.295Z,13.37
2023-03-29T11:30:48.662Z,14.22
2023-03-29T11:34:15.791Z,14.31
2023-03-29T11:37:50.046Z,13.88
2023-03-29T11:41:11.178Z,13.65
2023-03-29T11:44:19.881Z,13.40
2023-03-29T11:47:27.658Z,13.26
2023-03-29T11:50:45.179Z,13.67
2023-03-29T11:53:58.610Z,13.59
2023-03-29T11:57:12.550Z,13.51
2023-03-29T12:00:19.373Z,13.54
2023-03-29T12:03:44.740Z,13.17
2023-03-29T12:07:24.242Z,13.00
2023-03-29T12:10:36.532Z,13.35
2023-03-29T12:13:45.316Z,13.94
2023-03-29T12:16:57.565Z,14.10
2023-03-29T12:20:07.295Z,14.47
2023-03-29T12:23:17.033Z,15.23
2023-03-29T12:26:40.737Z,14.31
2023-03-29T12:30:03.037Z,14.23
2023-03-29T12:33:29.518Z,13.60
2023-03-29T12:36:57.701Z,13.44
2023-03-29T12:40:13.239Z,13.26
2023-03-29T12:43:33.020Z,12.83
2023-03-29T12:46:36.894Z,13.06
2023-03-29T12:49:41.104Z,13.00
2023-03-29T12:52:43.955Z,12.92
2023-03-29T12:55:50.772Z,12.99
2023-03-29T12:59:12.039Z,12.86
2023-03-29T13:02:15.973Z,12.85
2023-03-29T13:05:34.848Z,13.29
2023-03-29T13:08:44.170Z,13.20
2023-03-29T13:11:57.420Z,13.58
2023-03-29T13:15:06.406Z,13.90
2023-03-29T13:18:48.868Z,14.06
2023-03-29T13:22:07.609Z,14.23
2023-03-29T13:25:41.598Z,13.94
2023-03-29T13:29:19.012Z,13.53
2023-03-29T13:32:28.069Z,13.29
2023-03-29T13:35:40.318Z,12.95
2023-03-29T13:38:51.922Z,12.66
2023-03-29T13:42:07.391Z,12.36
2023-03-29T13:45:17.549Z,12.00
2023-03-29T13:48:30.059Z,11.89
2023-03-29T13:51:37.288Z,12.00
2023-03-29T13:55:02.235Z,11.97
2023-03-29T13:58:14.184Z,12.43
2023-03-29T14:01:23.489Z,12.59
2023-03-29T14:04:34.624Z,12.36
2023-03-29T14:07:40.217Z,12.28
2023-03-29T14:10:45.520Z,12.17
2023-03-29T14:13:49.202Z,12.24
2023-03-29T14:16:54.320Z,12.24
2023-03-29T14:19:59.773Z,12.39
2023-03-29T14:23:10.471Z,12.46
2023-03-29T14:26:19.184Z,12.54
2023-03-29T14:29:25.040Z,12.75
2023-03-29T14:32:31.139Z,12.48
2023-03-29T14:35:34.798Z,12.27
2023-03-29T14:38:38.189Z,12.17
2023-03-29T14:41:47.867Z,11.86
2023-03-29T14:44:51.250Z,11.50
2023-03-29T14:47:54.797Z,11.55
2023-03-29T14:50:57.933Z,11.44
2023-03-29T14:54:04.144Z,11.13
2023-03-29T14:57:07.595Z,11.06
2023-03-29T15:00:26.261Z,10.85
2023-03-29T15:03:29.653Z,10.89
2023-03-29T15:06:38.750Z,10.85
2023-03-29T15:09:45.335Z,10.80
2023-03-29T15:12:49.821Z,10.74
2023-03-29T15:15:56.692Z,10.63
2023-03-29T15:19:02.238Z,10.49
2023-03-29T15:22:11.819Z,10.34
2023-03-29T15:25:19.981Z,10.21
2023-03-29T15:28:30.190Z,10.15
2023-03-29T15:31:36.296Z,10.00
2023-03-29T15:34:39.413Z,9.81
2023-03-29T15:37:43.813Z,9.63
2023-03-29T15:40:48.470Z,9.51
2023-03-29T15:43:51.664Z,9.44
2023-03-29T15:47:00.022Z,9.38
2023-03-29T15:50:03.467Z,9.35
2023-03-29T15:53:15.197Z,9.27
2023-03-29T15:56:23.157Z,9.20
2023-03-29T15:59:26.373Z,9.21
2023-03-29T16:02:29.987Z,9.13
2023-03-29T16:05:33.760Z,9.10
2023-03-29T16:08:36.806Z,9.03
2023-03-29T16:11:41.998Z,9.03
2023-03-29T16:14:45.176Z,9.04
2023-03-29T16:17:48.571Z,8.95
2023-03-29T16:20:52.029Z,8.89
2023-03-29T16:23:55.618Z,8.88
2023-03-29T16:26:59.962Z,8.82
2023-03-29T16:30:04.064Z,8.73
2023-03-29T16:33:08.969Z,8.67
2023-03-29T16:36:12.626Z,8.57
2023-03-29T16:39:16.414Z,8.52
2023-03-29T16:42:19.618Z,8.40
2023-03-29T16:45:23.595Z,8.30
2023-03-29T16:48:27.325Z,8.23
2023-03-29T16:51:31.176Z,8.15
2023-03-29T16:54:34.555Z,8.11
2023-03-29T16:57:37.537Z,8.09
2023-03-29T17:00:41.244Z,8.00
2023-03-29T17:03:45.964Z,7.97
2023-03-29T17:06:49.587Z,7.96
2023-03-29T17:09:52.839Z,7.96
2023-03-29T17:12:56.385Z,7.88
2023-03-29T17:15:59.763Z,7.86
2023-03-29T17:19:03.379Z,7.83
2023-03-29T17:22:06.949Z,7.81
2023-03-29T17:25:10.677Z,7.82
2023-03-29T17:28:13.979Z,7.81
2023-03-29T17:31:19.933Z,7.85
2023-03-29T17:34:23.999Z,7.87
2023-03-29T17:37:31.131Z,7.91
2023-03-29T17:40:34.366Z,7.89
2023-03-29T17:43:38.319Z,7.91
2023-03-29T17:46:41.549Z,7.95
2023-03-29T17:49:45.170Z,7.92
2023-03-29T17:52:52.649Z,7.98
2023-03-29T17:55:56.851Z,8.01
2023-03-29T17:59:00.839Z,8.05
2023-03-29T18:02:06.334Z,8.03
2023-03-29T18:05:15.295Z,8.11
2023-03-29T18:08:19.244Z,8.26
2023-03-29T18:11:25.449Z,8.22
2023-03-29T18:14:29.007Z,8.28
2023-03-29T18:17:33.237Z,8.35
2023-03-29T18:20:36.585Z,8.46
2023-03-29T18:23:42.654Z,8.34
2023-03-29T18:26:45.949Z,8.44
2023-03-29T18:29:50.824Z,8.42
2023-03-29T18:32:55.115Z,8.41
2023-03-29T18:35:58.752Z,8.30
2023-03-29T18:39:06.011Z,8.22
2023-03-29T18:42:12.277Z,8.13
2023-03-29T18:45:17.014Z,8.13
2023-03-29T18:48:23.326Z,8.13
2023-03-29T18:51:29.313Z,8.07
2023-03-29T18:54:34.840Z,8.30
2023-03-29T18:57:39.140Z,8.21
2023-03-29T19:00:45.053Z,8.14
2023-03-29T19:03:49.372Z,8.28
2023-03-29T19:06:56.684Z,8.32
2023-03-29T19:10:00.760Z,8.37
2023-03-29T19:13:06.377Z,8.34
2023-03-29T19:16:11.186Z,8.32
2023-03-29T19:19:15.077Z,8.26
2023-03-29T19:22:19.161Z,8.31
2023-03-29T19:25:24.066Z,7.93
2023-03-29T19:28:28.167Z,8.12
2023-03-29T19:31:36.618Z,8.14
2023-03-29T19:34:41.418Z,8.12
2023-03-29T19:37:45.894Z,8.04
2023-03-29T19:40:52.228Z,7.71
2023-03-29T19:43:57.042Z,7.72
2023-03-29T19:47:01.022Z,7.46
2023-03-29T19:50:06.022Z,7.35
2023-03-29T19:53:12.185Z,7.42
2023-03-29T19:56:16.275Z,7.58
2023-03-29T19:59:20.791Z,7.54
2023-03-29T20:02:27.781Z,7.39
2023-03-29T20:05:31.660Z,7.49
2023-03-29T20:08:39.176Z,7.66
2023-03-29T20:11:44.570Z,7.53
2023-03-29T20:14:47.626Z,7.58
2023-03-29T20:17:53.199Z,7.58
2023-03-29T20:20:57.687Z,7.57
2023-03-29T20:24:01.417Z,7.58
2023-03-29T20:27:04.755Z,7.55
2023-03-29T20:30:10.152Z,7.56
2023-03-29T20:33:13.689Z,7.54
2023-03-29T20:36:23.155Z,7.54
2023-03-29T20:39:26.968Z,7.38
2023-03-29T20:42:31.166Z,7.18
2023-03-29T20:45:42.931Z,7.12
2023-03-29T20:48:54.984Z,7.31
2023-03-29T20:52:03.539Z,7.31
2023-03-29T20:55:06.938Z,7.30
2023-03-29T20:58:09.823Z,7.32
2023-03-29T21:01:14.567Z,7.39
2023-03-29T21:04:17.471Z,7.49
2023-03-29T21:07:21.944Z,7.63
2023-03-29T21:10:26.444Z,7.63
2023-03-29T21:13:29.558Z,7.62
2023-03-29T21:16:32.484Z,7.66
2023-03-29T21:19:38.339Z,7.72
2023-03-29T21:22:43.338Z,7.72
2023-03-29T21:25:46.402Z,7.80
2023-03-29T21:28:49.285Z,7.77
2023-03-29T21:31:52.375Z,7.71
2023-03-29T21:34:55.207Z,7.74
2023-03-29T21:37:58.282Z,7.80
2023-03-29T21:41:02.662Z,7.81
2023-03-29T21:44:06.276Z,7.80
2023-03-29T21:47:09.338Z,8.08
2023-03-29T21:50:12.698Z,8.22
2023-03-29T21:53:16.295Z,8.24
2023-03-29T21:56:19.364Z,8.34
2023-03-29T21:59:22.055Z,8.21
2023-03-29T22:02:25.376Z,8.14
2023-03-29T22:05:28.685Z,8.03
2023-03-29T22:08:31.774Z,7.94
2023-03-29T22:11:34.955Z,7.85
2023-03-29T22:14:37.851Z,7.98
2023-03-29T22:17:43.001Z,7.91
2023-03-29T22:20:46.929Z,7.80
2023-03-29T22:23:52.788Z,7.81
2023-03-29T22:26:55.576Z,7.92
2023-03-29T22:29:59.012Z,7.95
2023-03-29T22:33:01.897Z,7.92
2023-03-29T22:36:27.141Z,7.88
2023-03-29T22:39:30.249Z,7.80
2023-03-29T22:42:33.379Z,7.85
2023-03-29T22:45:36.574Z,7.81
2023-03-29T22:48:40.260Z,7.70
2023-03-29T22:51:43.133Z,7.62
2023-03-29T22:54:46.494Z,7.60
2023-03-29T22:57:49.402Z,7.61
2023-03-29T23:00:53.415Z,7.58
2023-03-29T23:03:56.491Z,7.68
2023-03-29T23:07:00.468Z,7.70
2023-03-29T23:10:07.854Z,7.79
2023-03-29T23:13:13.079Z,7.78
2023-03-29T23:16:15.981Z,7.82
2023-03-29T23:19:19.438Z,7.88
2023-03-29T23:22:22.883Z,7.78
2023-03-29T23:25:27.777Z,7.78
2023-03-29T23:28:31.690Z,7.58
2023-03-29T23:31:37.953Z,7.64
2023-03-29T23:34:40.980Z,7.78
2023-03-29T23:37:45.188Z,7.77
2023-03-29T23:40:58.969Z,7.59
2023-03-29T23:44:03.833Z,7.43
2023-03-29T23:47:07.445Z,7.38
2023-03-29T23:50:17.004Z,7.22
2023-03-29T23:53:21.071Z,7.28
2023-03-29T23:56:24.525Z,7.27
2023-03-29T23:59:30.838Z,7.16
